Time;durP1;ratioP1;P1;durP2;ratioP2;P2;SDS_P1;SDS_P2;PMS_P1;PMS_P2;Temp;Humidity;BMP_temperature;BMP_pressure;BME280_temperature;BME280_humidity;BME280_pressure;Samples;Min_cycle;Max_cycle;Signal;HPM_P1;HPM_P2
2023/12/29 00:02:02;;;;;;;2.10;1.13;;;8.80;99.90;;;;;;4994396;28;20215;-83
2023/12/29 00:04:27;;;;;;;2.53;1.20;;;8.80;99.90;;;;;;4994631;28;20183;-82
2023/12/29 00:06:53;;;;;;;5.73;1.20;;;8.70;99.90;;;;;;4994280;28;20195;-81
2023/12/29 00:09:19;;;;;;;6.13;1.20;;;8.70;99.90;;;;;;4995552;28;20650;-82
2023/12/29 00:11:48;;;;;;;3.17;1.20;;;8.80;99.90;;;;;;4994729;28;20212;-82
2023/12/29 00:14:13;;;;;;;7.37;1.30;;;8.70;99.90;;;;;;4994362;28;20241;-82
2023/12/29 00:16:39;;;;;;;3.92;1.30;;;8.70;99.90;;;;;;4994390;28;20188;-86
2023/12/29 00:19:05;;;;;;;4.53;1.23;;;8.70;99.90;;;;;;4994450;28;20195;-81
2023/12/29 00:21:31;;;;;;;3.40;1.35;;;8.70;99.90;;;;;;4994238;28;20191;-83
2023/12/29 00:23:57;;;;;;;3.23;1.30;;;8.70;99.90;;;;;;4994188;28;20239;-81
2023/12/29 00:26:23;;;;;;;6.18;1.77;;;8.80;99.90;;;;;;5001974;28;20335;-82
2023/12/29 00:28:49;;;;;;;3.47;1.00;;;8.80;99.90;;;;;;5003739;28;20580;-82
2023/12/29 00:31:18;;;;;;;5.50;1.40;;;8.80;99.90;;;;;;4998565;28;20787;-81
2023/12/29 00:33:44;;;;;;;4.30;1.20;;;8.80;99.90;;;;;;4999886;28;20183;-81
2023/12/29 00:36:17;;;;;;;2.42;1.17;;;8.90;99.90;;;;;;4994468;28;20634;-81
2023/12/29 00:38:43;;;;;;;4.95;1.13;;;8.90;99.90;;;;;;4994211;28;20192;-81
2023/12/29 00:41:09;;;;;;;5.82;1.85;;;8.90;99.90;;;;;;5003207;28;20485;-82
2023/12/29 00:43:35;;;;;;;3.92;1.30;;;8.90;99.90;;;;;;5000054;28;20532;-82
2023/12/29 00:46:02;;;;;;;3.17;1.30;;;8.80;99.90;;;;;;4995795;28;20230;-83
2023/12/29 00:48:29;;;;;;;5.90;1.60;;;8.80;99.90;;;;;;4995467;28;20188;-82
2023/12/29 00:50:55;;;;;;;3.47;1.20;;;8.90;99.90;;;;;;5003143;28;20183;-82
2023/12/29 00:53:21;;;;;;;4.25;1.33;;;8.90;99.90;;;;;;4995229;28;20292;-82
2023/12/29 00:55:47;;;;;;;4.47;1.17;;;8.90;99.90;;;;;;5002381;28;20267;-83
2023/12/29 00:58:12;;;;;;;3.38;1.10;;;8.90;99.90;;;;;;4995342;28;20191;-81
2023/12/29 01:00:39;;;;;;;6.55;1.40;;;8.90;99.90;;;;;;4994065;28;20188;-81
2023/12/29 01:03:05;;;;;;;3.57;1.43;;;8.80;99.90;;;;;;4994921;28;20215;-82
2023/12/29 01:05:30;;;;;;;4.27;1.33;;;8.80;99.90;;;;;;4994868;28;20314;-82
2023/12/29 01:07:56;;;;;;;3.60;1.17;;;8.80;99.90;;;;;;4993552;28;20617;-82
2023/12/29 01:10:22;;;;;;;2.65;1.42;;;8.80;99.90;;;;;;5002825;28;20207;-82
2023/12/29 01:12:48;;;;;;;4.68;1.38;;;8.90;99.90;;;;;;4993585;28;20188;-84
2023/12/29 01:15:14;;;;;;;5.00;1.20;;;8.80;99.90;;;;;;5002852;28;20266;-82
2023/12/29 01:17:40;;;;;;;4.13;1.25;;;8.80;99.90;;;;;;4993258;28;20201;-81
2023/12/29 01:20:07;;;;;;;4.22;1.20;;;8.80;99.90;;;;;;4994671;28;20183;-81
2023/12/29 01:22:33;;;;;;;2.67;1.47;;;8.80;99.90;;;;;;5009453;28;20290;-82
2023/12/29 01:25:00;;;;;;;2.33;1.05;;;8.80;99.90;;;;;;4994216;28;20188;-81
2023/12/29 01:27:26;;;;;;;1.97;1.37;;;8.80;99.90;;;;;;5005968;28;20241;-81
2023/12/29 01:29:52;;;;;;;5.50;1.50;;;8.80;99.90;;;;;;5004578;28;20598;-81
2023/12/29 01:32:19;;;;;;;6.10;1.33;;;8.80;99.90;;;;;;4993298;28;20242;-80
2023/12/29 01:34:45;;;;;;;2.97;1.20;;;8.80;99.90;;;;;;4994656;28;20199;-81
2023/12/29 01:37:11;;;;;;;2.45;1.20;;;8.80;99.90;;;;;;4993080;28;20580;-83
2023/12/29 01:39:36;;;;;;;4.82;1.63;;;8.80;99.90;;;;;;4993002;28;20219;-82
2023/12/29 01:42:02;;;;;;;2.47;1.27;;;8.80;99.90;;;;;;4994421;28;20230;-82
2023/12/29 01:44:28;;;;;;;3.13;1.30;;;8.80;99.90;;;;;;4994703;28;20267;-81
2023/12/29 01:46:59;;;;;;;4.13;1.30;;;8.80;99.90;;;;;;4995650;28;20222;-81
2023/12/29 01:49:25;;;;;;;3.40;1.10;;;8.70;99.90;;;;;;4997171;28;20199;-82
2023/12/29 01:51:57;;;;;;;4.50;1.25;;;8.70;99.90;;;;;;4998250;28;20211;-80
2023/12/29 01:54:25;;;;;;;3.60;1.13;;;8.70;99.90;;;;;;4997009;28;20203;-80
2023/12/29 01:56:57;;;;;;;5.13;1.30;;;8.70;99.90;;;;;;5004573;28;20199;-81
2023/12/29 01:59:25;;;;;;;5.70;1.25;;;8.60;99.90;;;;;;4998483;28;20322;-83
2023/12/29 02:01:51;;;;;;;5.05;1.60;;;8.60;99.90;;;;;;4997987;28;20219;-81
2023/12/29 02:04:18;;;;;;;4.60;1.48;;;8.50;99.90;;;;;;4996901;28;20290;-82
2023/12/29 02:06:44;;;;;;;4.97;1.27;;;8.40;99.90;;;;;;4997078;28;20297;-82
2023/12/29 02:09:12;;;;;;;3.95;1.50;;;8.40;99.90;;;;;;4996633;28;20526;-82
2023/12/29 02:11:38;;;;;;;4.47;1.40;;;8.40;99.90;;;;;;4997781;28;20180;-81
2023/12/29 02:14:05;;;;;;;3.40;1.20;;;8.40;99.90;;;;;;4997812;28;20246;-81
2023/12/29 02:17:08;;;;;;;3.00;1.10;;;8.40;99.90;;;;;;4996473;28;20194;-82
2023/12/29 02:19:40;;;;;;;3.20;1.20;;;8.50;99.90;;;;;;4996636;28;20199;-82
2023/12/29 02:22:06;;;;;;;4.23;1.20;;;8.50;99.90;;;;;;4997439;28;20220;-81
2023/12/29 02:24:37;;;;;;;3.17;1.10;;;8.60;99.90;;;;;;4997702;28;20195;-82
2023/12/29 02:27:20;;;;;;;2.57;1.10;;;8.60;99.90;;;;;;5004343;28;20191;-81
2023/12/29 02:30:03;;;;;;;2.03;1.20;;;8.50;99.90;;;;;;4997603;28;20188;-82
2023/12/29 02:32:31;;;;;;;3.07;1.17;;;8.50;99.90;;;;;;4997777;28;20243;-82
2023/12/29 02:34:59;;;;;;;5.07;1.58;;;8.50;99.90;;;;;;4997503;28;20195;-81
2023/12/29 02:37:26;;;;;;;3.20;1.00;;;8.50;99.90;;;;;;4996152;28;20188;-82
2023/12/29 02:39:52;;;;;;;4.83;1.43;;;8.50;99.90;;;;;;4997213;28;20187;-81
2023/12/29 02:42:18;;;;;;;4.22;1.10;;;8.50;99.90;;;;;;4997359;28;20208;-82
2023/12/29 02:44:44;;;;;;;4.00;1.15;;;8.40;99.90;;;;;;4997443;28;20677;-83
2023/12/29 02:47:10;;;;;;;2.40;0.77;;;8.40;99.90;;;;;;4996068;28;20206;-80
2023/12/29 02:49:35;;;;;;;2.67;0.93;;;8.50;99.90;;;;;;4995929;28;20690;-81
2023/12/29 02:52:01;;;;;;;3.63;1.20;;;8.40;99.90;;;;;;4997161;28;20184;-82
2023/12/29 02:54:27;;;;;;;2.10;1.10;;;8.40;99.90;;;;;;4997195;28;20172;-81
2023/12/29 02:56:53;;;;;;;3.38;1.13;;;8.40;99.90;;;;;;5004701;28;20579;-81
2023/12/29 02:59:19;;;;;;;2.90;0.90;;;8.40;99.90;;;;;;4994790;28;20635;-82
2023/12/29 03:01:45;;;;;;;4.85;1.23;;;8.40;99.90;;;;;;4995842;28;20218;-80
2023/12/29 03:04:11;;;;;;;1.77;0.93;;;8.50;99.90;;;;;;4996923;28;20231;-82
2023/12/29 03:06:36;;;;;;;2.33;1.10;;;8.50;99.90;;;;;;4996917;28;20180;-81
2023/12/29 03:09:02;;;;;;;2.92;1.10;;;8.50;99.90;;;;;;4995646;28;20187;-81
2023/12/29 03:11:28;;;;;;;2.30;0.90;;;8.50;99.90;;;;;;4995441;28;20192;-82
2023/12/29 03:13:54;;;;;;;3.30;1.20;;;8.50;99.90;;;;;;4996786;28;20518;-80
2023/12/29 03:16:20;;;;;;;2.70;1.17;;;8.60;99.90;;;;;;4999373;28;20218;-82
2023/12/29 03:18:47;;;;;;;3.25;1.00;;;8.60;99.90;;;;;;4999470;28;20618;-81
2023/12/29 03:21:13;;;;;;;4.70;1.05;;;8.60;99.90;;;;;;4995462;28;20283;-82
2023/12/29 03:23:39;;;;;;;4.15;1.10;;;8.60;99.90;;;;;;5004614;28;20373;-82
2023/12/29 03:26:04;;;;;;;2.43;1.00;;;8.60;99.90;;;;;;4994868;28;20294;-82
2023/12/29 03:28:30;;;;;;;1.97;0.90;;;8.60;99.90;;;;;;4995272;28;20215;-81
2023/12/29 03:30:56;;;;;;;2.97;1.17;;;8.60;99.90;;;;;;4995179;28;20259;-81
2023/12/29 03:36:05;;;;;;;5.22;1.15;;;8.60;99.90;;;;;;5362646;23;20234;-90
2023/12/29 03:38:33;;;;;;;2.63;0.90;;;8.60;99.90;;;;;;5007991;28;20575;-89
2023/12/29 03:40:59;;;;;;;4.60;1.23;;;8.60;99.90;;;;;;5016101;28;20194;-91
2023/12/29 03:43:25;;;;;;;1.92;0.80;;;8.60;99.90;;;;;;5017260;28;20214;-91
2023/12/29 03:45:59;;;;;;;3.43;0.90;;;8.60;99.90;;;;;;5016229;28;20183;-92
2023/12/29 03:48:24;;;;;;;2.93;1.00;;;8.50;99.90;;;;;;5017698;28;20239;-93
2023/12/29 03:50:50;;;;;;;2.50;1.02;;;8.50;99.90;;;;;;5015430;28;20249;-94
2023/12/29 03:53:16;;;;;;;3.50;1.03;;;8.40;99.90;;;;;;5008280;28;20240;-95
2023/12/29 03:55:42;;;;;;;4.15;1.13;;;8.40;99.90;;;;;;5016070;28;20230;-95
2023/12/29 03:58:18;;;;;;;2.43;0.93;;;8.40;99.90;;;;;;5015960;28;20262;-93
2023/12/29 04:00:43;;;;;;;5.20;0.80;;;8.40;99.90;;;;;;5016009;28;20193;-93
2023/12/29 04:03:09;;;;;;;3.20;1.10;;;8.40;99.90;;;;;;5015993;28;20211;-90
2023/12/29 04:05:35;;;;;;;2.10;1.00;;;8.50;99.90;;;;;;5011519;28;20286;-91
2023/12/29 04:08:01;;;;;;;4.68;1.00;;;8.50;99.90;;;;;;5013939;28;20191;-93
2023/12/29 04:10:27;;;;;;;2.97;1.05;;;8.60;99.90;;;;;;5008832;28;20191;-94
2023/12/29 04:12:52;;;;;;;5.53;1.00;;;8.50;99.90;;;;;;5007798;28;20191;-92
2023/12/29 04:15:18;;;;;;;3.10;0.85;;;8.60;99.90;;;;;;5016039;28;20530;-94
2023/12/29 04:18:03;;;;;;;5.88;1.33;;;8.60;99.90;;;;;;5016660;28;20191;-90
2023/12/29 04:20:28;;;;;;;2.93;0.90;;;8.70;99.90;;;;;;5002413;28;20186;-91
2023/12/29 04:22:55;;;;;;;1.50;0.70;;;8.70;99.90;;;;;;5015234;28;20237;-91
2023/12/29 04:25:21;;;;;;;2.50;0.70;;;8.70;99.90;;;;;;4999396;28;20197;-93
2023/12/29 04:27:50;;;;;;;2.25;0.80;;;8.60;99.90;;;;;;5015234;28;20211;-91
2023/12/29 04:30:17;;;;;;;3.20;1.00;;;8.70;99.90;;;;;;5008605;28;20221;-91
2023/12/29 04:32:43;;;;;;;1.67;0.80;;;8.70;99.90;;;;;;5017649;28;20187;-92
2023/12/29 04:35:12;;;;;;;3.67;0.80;;;8.70;99.90;;;;;;5012220;28;20281;-90
2023/12/29 04:37:41;;;;;;;3.50;0.70;;;8.70;99.90;;;;;;5016320;28;20197;-92
2023/12/29 04:40:07;;;;;;;1.67;0.70;;;8.70;99.90;;;;;;5016226;28;20273;-90
2023/12/29 04:42:34;;;;;;;0.90;0.47;;;8.70;99.90;;;;;;5009400;28;20237;-96
2023/12/29 04:45:00;;;;;;;3.08;0.95;;;8.70;99.90;;;;;;5016996;28;20191;-93
2023/12/29 04:47:26;;;;;;;2.35;0.80;;;8.70;99.90;;;;;;5013153;28;20196;-93
2023/12/29 04:49:55;;;;;;;1.08;0.70;;;8.60;99.90;;;;;;5015296;28;20195;-94
2023/12/29 04:52:21;;;;;;;2.53;0.80;;;8.60;99.90;;;;;;5010470;28;20249;-91
2023/12/29 04:54:47;;;;;;;2.78;0.77;;;8.60;99.90;;;;;;5015861;28;20195;-94
2023/12/29 04:57:15;;;;;;;1.95;0.60;;;8.60;99.90;;;;;;5014006;28;20192;-91
2023/12/29 04:59:40;;;;;;;2.47;0.85;;;8.50;99.90;;;;;;5006903;28;20184;-94
2023/12/29 05:02:06;;;;;;;4.67;0.90;;;8.50;99.90;;;;;;5015916;28;20226;-93
2023/12/29 05:04:32;;;;;;;2.07;0.90;;;8.40;99.90;;;;;;5017777;28;20191;-93
2023/12/29 05:06:59;;;;;;;1.40;0.88;;;8.40;99.90;;;;;;5016260;28;20195;-91
2023/12/29 05:09:25;;;;;;;3.65;1.15;;;8.50;99.90;;;;;;5017616;28;20237;-93
2023/12/29 05:11:52;;;;;;;4.87;1.30;;;8.50;99.90;;;;;;5017008;28;20183;-94
2023/12/29 05:14:18;;;;;;;3.63;0.98;;;8.50;99.90;;;;;;5016178;28;20191;-90
2023/12/29 05:16:44;;;;;;;3.80;1.00;;;8.50;99.90;;;;;;5015743;28;20642;-91
2023/12/29 05:19:10;;;;;;;1.58;0.75;;;8.50;99.90;;;;;;5008633;28;20183;-88
2023/12/29 05:21:36;;;;;;;2.77;0.70;;;8.50;99.90;;;;;;5017351;28;20186;-94
2023/12/29 05:24:01;;;;;;;3.60;0.95;;;8.50;99.90;;;;;;5020453;28;20260;-92
2023/12/29 05:26:27;;;;;;;2.17;0.82;;;8.50;99.90;;;;;;5020206;28;20229;-93
2023/12/29 05:28:53;;;;;;;2.42;0.77;;;8.50;99.90;;;;;;5012143;28;20229;-92
2023/12/29 05:31:19;;;;;;;4.80;1.08;;;8.50;99.90;;;;;;5019232;28;20202;-93
2023/12/29 05:33:45;;;;;;;2.47;1.00;;;8.50;99.90;;;;;;5019175;28;20195;-94
2023/12/29 05:36:11;;;;;;;4.57;1.05;;;8.50;99.90;;;;;;5011284;28;20234;-93
2023/12/29 05:38:43;;;;;;;4.60;0.90;;;8.40;99.90;;;;;;5019351;28;20255;-92
2023/12/29 05:41:13;;;;;;;1.83;0.50;;;8.40;99.90;;;;;;5019810;28;20186;-91
2023/12/29 05:43:39;;;;;;;4.23;1.07;;;8.40;99.90;;;;;;5016726;28;20238;-89
2023/12/29 05:46:14;;;;;;;1.83;0.70;;;8.40;99.90;;;;;;5015693;28;20182;-92
2023/12/29 05:48:41;;;;;;;1.90;1.00;;;8.50;99.90;;;;;;5018746;28;20197;-88
2023/12/29 05:51:10;;;;;;;2.47;1.03;;;8.50;99.90;;;;;;5019076;28;20698;-89
2023/12/29 05:53:37;;;;;;;2.07;0.70;;;8.50;99.90;;;;;;5004854;28;20214;-88
2023/12/29 05:56:03;;;;;;;1.47;0.87;;;8.40;99.90;;;;;;5016793;28;20275;-91
2023/12/29 05:58:30;;;;;;;3.22;1.13;;;8.40;99.90;;;;;;5018595;28;20187;-93
2023/12/29 06:00:56;;;;;;;4.23;1.17;;;8.30;99.90;;;;;;5010557;28;20232;-95
2023/12/29 06:03:21;;;;;;;2.45;1.00;;;8.20;99.90;;;;;;5018850;28;20234;-89
2023/12/29 06:05:48;;;;;;;3.47;0.83;;;8.20;99.90;;;;;;5015339;28;20194;-94
2023/12/29 06:08:14;;;;;;;5.75;1.25;;;8.10;99.90;;;;;;5007689;28;20275;-90
2023/12/29 06:10:41;;;;;;;3.65;1.13;;;8.20;99.90;;;;;;5013644;28;20183;-92
2023/12/29 06:13:07;;;;;;;3.73;0.90;;;8.20;99.90;;;;;;5018941;28;20190;-92
2023/12/29 06:15:33;;;;;;;4.63;0.90;;;8.20;99.90;;;;;;5017780;28;20191;-95
2023/12/29 06:18:06;;;;;;;2.87;0.87;;;8.20;99.90;;;;;;5019023;28;20191;-90
2023/12/29 06:20:32;;;;;;;2.97;0.77;;;8.20;99.90;;;;;;5005173;28;20187;-91
2023/12/29 06:22:59;;;;;;;2.60;1.00;;;8.20;99.90;;;;;;4999802;28;20572;-94
2023/12/29 06:25:25;;;;;;;3.77;0.97;;;8.20;99.90;;;;;;5012713;28;20191;-91
2023/12/29 06:27:51;;;;;;;5.83;1.20;;;8.20;99.90;;;;;;5018635;28;20637;-90
2023/12/29 06:30:17;;;;;;;1.40;0.90;;;8.30;99.90;;;;;;5018747;28;20195;-92
2023/12/29 06:32:43;;;;;;;2.60;0.83;;;8.30;99.90;;;;;;5017989;28;20537;-91
2023/12/29 06:35:12;;;;;;;2.10;1.10;;;8.30;99.90;;;;;;5014389;28;20239;-93
2023/12/29 06:37:45;;;;;;;2.60;1.07;;;8.30;99.90;;;;;;5010461;28;20195;-92
2023/12/29 06:40:11;;;;;;;4.43;1.30;;;8.20;99.90;;;;;;5017296;28;20536;-92
2023/12/29 06:42:37;;;;;;;5.07;1.10;;;8.20;99.90;;;;;;5014437;28;20650;-88
2023/12/29 06:45:04;;;;;;;3.97;1.00;;;8.30;99.90;;;;;;5013360;28;20259;-89
2023/12/29 06:47:33;;;;;;;4.37;0.90;;;8.30;99.90;;;;;;5012049;28;20200;-89
2023/12/29 06:49:59;;;;;;;2.00;1.00;;;8.30;99.90;;;;;;5015223;28;20187;-92
2023/12/29 06:52:26;;;;;;;3.33;1.17;;;8.20;99.90;;;;;;5018666;28;20190;-92
2023/12/29 06:54:52;;;;;;;5.43;1.10;;;8.20;99.90;;;;;;5017650;28;20191;-89
2023/12/29 06:57:18;;;;;;;6.20;1.13;;;8.30;99.90;;;;;;5015419;28;20625;-94
2023/12/29 06:59:43;;;;;;;2.25;1.35;;;8.20;99.90;;;;;;5015139;28;20187;-93
2023/12/29 07:02:09;;;;;;;2.73;1.27;;;8.30;99.90;;;;;;5006617;28;20242;-94
2023/12/29 07:04:35;;;;;;;1.67;0.87;;;8.20;99.90;;;;;;5004824;28;20191;-96
2023/12/29 07:07:02;;;;;;;3.60;1.20;;;8.20;99.90;;;;;;5013118;28;20187;-94
2023/12/29 07:09:27;;;;;;;5.33;1.10;;;8.20;99.90;;;;;;5018929;28;20270;-94
2023/12/29 07:11:54;;;;;;;5.83;1.57;;;8.20;99.90;;;;;;5017936;28;20268;-93
2023/12/29 07:14:20;;;;;;;3.97;1.30;;;8.10;99.90;;;;;;5018621;28;20237;-95
2023/12/29 07:16:46;;;;;;;2.97;1.05;;;8.10;99.90;;;;;;5016196;28;20191;-93
2023/12/29 07:19:22;;;;;;;5.20;1.20;;;8.10;99.90;;;;;;5016984;28;20269;-92
2023/12/29 07:21:54;;;;;;;5.90;1.30;;;8.10;99.90;;;;;;5017523;28;20695;-96
2023/12/29 07:24:20;;;;;;;3.70;1.00;;;8.20;99.90;;;;;;5018419;28;20191;-96
2023/12/29 07:26:46;;;;;;;1.98;1.10;;;8.20;99.90;;;;;;5017201;28;20282;-91
2023/12/29 07:29:12;;;;;;;4.70;1.13;;;8.20;99.90;;;;;;5018260;28;20218;-95
2023/12/29 07:31:41;;;;;;;4.30;1.20;;;8.20;99.90;;;;;;5018436;28;20205;-95
2023/12/29 07:34:07;;;;;;;5.00;1.10;;;8.10;99.90;;;;;;5012839;28;20194;-96
2023/12/29 07:36:32;;;;;;;4.17;1.00;;;8.20;99.90;;;;;;5011066;28;20322;-95
2023/12/29 07:39:00;;;;;;;3.20;1.40;;;8.20;99.90;;;;;;5016120;28;20187;-96
2023/12/29 07:41:27;;;;;;;4.53;1.10;;;8.20;99.90;;;;;;5019066;28;20187;-93
2023/12/29 07:43:53;;;;;;;5.20;1.10;;;8.20;99.90;;;;;;5010939;28;20285;-94
2023/12/29 07:46:26;;;;;;;7.77;1.40;;;8.20;99.90;;;;;;5013351;28;20269;-96
2023/12/29 07:48:53;;;;;;;5.43;1.20;;;8.30;99.90;;;;;;5021622;28;20191;-96
2023/12/29 07:51:19;;;;;;;4.33;1.37;;;8.30;99.90;;;;;;5019383;28;20211;-96
2023/12/29 07:53:47;;;;;;;2.40;0.90;;;8.30;99.90;;;;;;5014145;28;20294;-93
2023/12/29 07:56:14;;;;;;;3.17;1.30;;;8.40;99.90;;;;;;5007945;28;20204;-91
2023/12/29 07:58:43;;;;;;;7.80;1.60;;;8.40;99.90;;;;;;5009611;28;20188;-93
2023/12/29 08:01:10;;;;;;;5.00;1.05;;;8.50;99.90;;;;;;5013885;28;20618;-94
2023/12/29 08:03:36;;;;;;;6.22;1.30;;;8.50;99.90;;;;;;5024974;22;20274;-94
2023/12/29 08:06:02;;;;;;;4.95;1.42;;;8.50;99.90;;;;;;5002076;28;20259;-94
2023/12/29 08:08:29;;;;;;;7.47;1.30;;;8.60;99.90;;;;;;5006413;28;20179;-91
2023/12/29 08:10:55;;;;;;;5.93;1.73;;;8.70;99.90;;;;;;5003118;28;20184;-92
2023/12/29 08:13:21;;;;;;;3.90;1.27;;;8.80;99.90;;;;;;5018598;28;20168;-94
2023/12/29 08:15:47;;;;;;;6.90;1.50;;;8.90;99.90;;;;;;5019758;28;20163;-93
2023/12/29 08:18:13;;;;;;;7.30;1.60;;;8.90;99.90;;;;;;4999824;28;20184;-94
2023/12/29 08:20:39;;;;;;;3.60;1.30;;;9.00;99.90;;;;;;4997820;28;20190;-94
2023/12/29 08:23:05;;;;;;;6.60;1.38;;;9.00;99.90;;;;;;4999764;28;20212;-94
2023/12/29 08:25:31;;;;;;;6.32;1.50;;;9.10;99.90;;;;;;5002823;28;20183;-93
2023/12/29 08:27:58;;;;;;;6.85;1.35;;;9.20;99.90;;;;;;5000805;28;20176;-92
2023/12/29 08:30:24;;;;;;;7.53;1.67;;;9.30;99.90;;;;;;5002107;28;20182;-94
2023/12/29 08:32:50;;;;;;;5.53;1.33;;;9.30;99.90;;;;;;5003942;28;20238;-92
2023/12/29 08:35:17;;;;;;;5.97;1.40;;;9.30;99.90;;;;;;5004635;28;20184;-95
2023/12/29 08:37:42;;;;;;;7.43;1.63;;;9.40;99.90;;;;;;5006306;28;20222;-92
2023/12/29 08:40:09;;;;;;;7.20;1.40;;;9.40;99.90;;;;;;5021048;28;20168;-93
2023/12/29 08:42:35;;;;;;;6.05;1.60;;;9.40;99.90;;;;;;5021652;28;20214;-94
2023/12/29 08:45:02;;;;;;;6.95;1.52;;;9.40;99.90;;;;;;5020859;28;20175;-93
2023/12/29 08:47:29;;;;;;;3.58;1.55;;;9.50;99.90;;;;;;5020375;28;20199;-93
2023/12/29 08:49:55;;;;;;;11.05;1.80;;;9.50;99.90;;;;;;5000636;28;20191;-94
2023/12/29 08:52:21;;;;;;;9.45;1.65;;;9.60;99.90;;;;;;4996987;28;20202;-92
2023/12/29 08:54:47;;;;;;;7.63;1.75;;;9.60;99.90;;;;;;4997788;28;20187;-91
2023/12/29 08:57:13;;;;;;;5.70;1.45;;;9.70;99.90;;;;;;4996881;28;20213;-91
2023/12/29 08:59:40;;;;;;;7.82;1.98;;;9.70;99.90;;;;;;4996947;28;20183;-92
2023/12/29 09:02:06;;;;;;;8.30;2.28;;;9.70;99.90;;;;;;4997844;28;20203;-93
2023/12/29 09:04:32;;;;;;;11.95;2.00;;;9.80;99.90;;;;;;4997061;28;20251;-93
2023/12/29 09:06:58;;;;;;;6.57;1.83;;;9.80;99.90;;;;;;4997164;28;20199;-92
2023/12/29 09:09:24;;;;;;;9.27;1.75;;;9.90;99.90;;;;;;4996479;28;20175;-93
2023/12/29 09:11:53;;;;;;;8.52;1.55;;;9.90;99.90;;;;;;4995166;28;20303;-92
2023/12/29 09:14:19;;;;;;;7.63;1.63;;;9.90;99.90;;;;;;4988307;28;20678;-95
2023/12/29 09:16:46;;;;;;;4.60;1.40;;;10.00;99.90;;;;;;4995010;28;20212;-94
2023/12/29 09:19:13;;;;;;;8.45;1.55;;;10.00;99.90;;;;;;4999291;28;20168;-90
2023/12/29 09:21:39;;;;;;;7.75;1.88;;;10.00;99.90;;;;;;5003775;28;20208;-92
2023/12/29 09:24:07;;;;;;;6.32;1.73;;;10.00;99.90;;;;;;4996501;28;20188;-93
2023/12/29 09:26:33;;;;;;;10.27;1.77;;;10.00;99.90;;;;;;4998367;28;20210;-94
2023/12/29 09:28:59;;;;;;;4.40;1.20;;;10.00;99.90;;;;;;5008102;28;20179;-93
2023/12/29 09:31:25;;;;;;;7.43;1.38;;;10.00;99.90;;;;;;5005373;28;20593;-94
2023/12/29 09:33:52;;;;;;;7.95;1.48;;;10.00;99.90;;;;;;4999022;28;20222;-94
2023/12/29 09:36:18;;;;;;;6.68;1.20;;;10.00;99.90;;;;;;4998601;28;20287;-94
2023/12/29 09:38:46;;;;;;;8.07;1.70;;;10.00;99.90;;;;;;4998364;28;20203;-93
2023/12/29 09:41:16;;;;;;;8.82;1.63;;;10.00;99.90;;;;;;4997929;28;20247;-93
2023/12/29 09:43:44;;;;;;;8.50;1.40;;;10.10;99.90;;;;;;4999433;28;20203;-94
2023/12/29 09:46:12;;;;;;;6.47;1.80;;;10.10;99.90;;;;;;4998853;28;20286;-95
2023/12/29 09:48:40;;;;;;;3.92;1.15;;;10.10;99.90;;;;;;4996002;28;20198;-95
2023/12/29 09:51:07;;;;;;;8.00;1.38;;;10.10;99.90;;;;;;4996196;28;20184;-92
2023/12/29 09:53:37;;;;;;;13.68;1.67;;;10.20;99.90;;;;;;4999012;28;20184;-93
2023/12/29 09:56:05;;;;;;;7.25;1.50;;;10.20;99.90;;;;;;4997815;28;20203;-92
2023/12/29 09:58:31;;;;;;;4.82;1.48;;;10.20;99.90;;;;;;4997750;28;20207;-91
2023/12/29 10:00:59;;;;;;;4.80;1.42;;;10.20;99.90;;;;;;4998471;28;20247;-93
2023/12/29 10:03:25;;;;;;;7.20;1.52;;;10.10;99.90;;;;;;5005406;28;20624;-93
2023/12/29 10:05:54;;;;;;;4.85;1.00;;;10.00;99.90;;;;;;5013517;28;20257;-92
2023/12/29 10:08:22;;;;;;;4.97;1.55;;;10.00;99.90;;;;;;5020187;28;20175;-95
2023/12/29 10:10:49;;;;;;;6.78;1.35;;;10.10;99.90;;;;;;5014068;28;20187;-92
2023/12/29 10:13:17;;;;;;;6.07;1.60;;;10.10;99.90;;;;;;5001975;28;20183;-92
2023/12/29 10:15:51;;;;;;;5.18;1.10;;;10.00;99.90;;;;;;5000308;28;20234;-93
2023/12/29 10:18:37;;;;;;;7.32;1.20;;;10.00;99.90;;;;;;5001402;28;20293;-95
2023/12/29 10:21:37;;;;;;;4.32;1.13;;;9.90;99.90;;;;;;5003581;28;20214;-96
2023/12/29 10:24:05;;;;;;;8.25;1.60;;;9.80;99.90;;;;;;5016851;28;20211;-93
2023/12/29 10:26:33;;;;;;;6.72;1.20;;;9.70;99.90;;;;;;5006493;28;20200;-93
2023/12/29 10:28:59;;;;;;;4.88;1.38;;;9.70;99.90;;;;;;4998692;28;20171;-91
2023/12/29 10:31:25;;;;;;;5.80;1.02;;;9.60;99.90;;;;;;5000290;28;20169;-94
2023/12/29 10:33:52;;;;;;;6.25;1.40;;;9.50;99.90;;;;;;4998498;28;20187;-92
2023/12/29 10:36:18;;;;;;;4.65;0.98;;;9.30;99.90;;;;;;5000713;28;20215;-92
2023/12/29 10:38:44;;;;;;;4.60;1.00;;;9.20;99.90;;;;;;5000569;28;20184;-95
2023/12/29 10:41:13;;;;;;;2.63;0.83;;;9.10;99.90;;;;;;4999684;28;20223;-91
2023/12/29 10:43:41;;;;;;;3.05;1.20;;;8.90;99.90;;;;;;5008607;28;20203;-92
2023/12/29 10:46:09;;;;;;;4.18;1.20;;;8.80;99.90;;;;;;5000639;28;20254;-92
2023/12/29 10:48:36;;;;;;;5.45;0.90;;;8.70;99.90;;;;;;4997946;28;20648;-93
2023/12/29 10:51:04;;;;;;;4.57;0.70;;;8.70;99.90;;;;;;5015689;28;20514;-93
2023/12/29 10:53:34;;;;;;;2.80;0.97;;;8.70;99.90;;;;;;5015211;28;20640;-92
2023/12/29 10:56:00;;;;;;;2.90;0.70;;;8.60;99.90;;;;;;4997791;28;20216;-91
2023/12/29 10:58:31;;;;;;;4.37;1.03;;;8.60;99.90;;;;;;4995409;28;20184;-93
2023/12/29 11:00:57;;;;;;;4.93;1.25;;;8.60;99.90;;;;;;4995811;28;20195;-91
2023/12/29 11:03:24;;;;;;;7.40;1.25;;;8.50;99.90;;;;;;5015780;28;20427;-92
2023/12/29 11:06:00;;;;;;;6.22;1.00;;;8.50;99.90;;;;;;5021608;28;20766;-95
2023/12/29 11:08:26;;;;;;;4.97;1.05;;;8.50;99.90;;;;;;5005086;28;20670;-93
2023/12/29 11:10:54;;;;;;;3.05;0.82;;;8.50;99.90;;;;;;4996390;28;20168;-94
2023/12/29 11:13:21;;;;;;;4.73;1.00;;;8.50;99.90;;;;;;4996628;28;20270;-91
2023/12/29 11:15:48;;;;;;;2.28;1.02;;;8.40;99.90;;;;;;4997315;28;20180;-94
2023/12/29 11:18:15;;;;;;;4.50;1.35;;;8.40;99.90;;;;;;4997478;28;20168;-95
2023/12/29 11:20:42;;;;;;;6.53;1.17;;;8.40;99.90;;;;;;5010597;28;20615;-95
2023/12/29 11:23:13;;;;;;;3.40;0.90;;;8.40;99.90;;;;;;4997073;28;20207;-94
2023/12/29 11:25:45;;;;;;;2.93;0.80;;;8.30;99.90;;;;;;4996098;28;20652;-95
2023/12/29 11:28:12;;;;;;;3.33;0.90;;;8.40;99.90;;;;;;4996369;28;20698;-94
2023/12/29 11:30:39;;;;;;;5.88;1.08;;;8.30;99.90;;;;;;4995818;28;20524;-94
2023/12/29 11:33:31;;;;;;;3.00;0.88;;;8.30;99.90;;;;;;5013288;28;20591;-94
2023/12/29 11:36:12;;;;;;;2.73;0.80;;;8.40;99.90;;;;;;5015873;28;20582;-94
2023/12/29 11:39:08;;;;;;;4.10;0.90;;;8.30;99.90;;;;;;5009657;28;20196;-91
2023/12/29 11:41:37;;;;;;;4.40;1.50;;;8.40;99.90;;;;;;4987403;28;20680;-93
2023/12/29 11:44:03;;;;;;;3.03;1.00;;;8.40;99.90;;;;;;4996971;28;20266;-92
2023/12/29 11:46:44;;;;;;;8.02;1.50;;;8.40;99.90;;;;;;4995008;28;20204;-93
2023/12/29 11:49:10;;;;;;;4.63;0.93;;;8.50;99.90;;;;;;4997951;28;20206;-92
2023/12/29 11:51:40;;;;;;;5.13;1.23;;;8.50;99.90;;;;;;4998201;28;20186;-93
2023/12/29 11:54:07;;;;;;;3.67;1.20;;;8.60;99.90;;;;;;4995329;28;20168;-91
2023/12/29 11:56:36;;;;;;;6.70;0.93;;;8.60;99.90;;;;;;4995604;28;20214;-95
2023/12/29 11:59:23;;;;;;;3.72;0.88;;;8.60;99.90;;;;;;5003581;28;20215;-96
2023/12/29 12:01:57;;;;;;;3.63;1.08;;;8.70;99.90;;;;;;5014623;28;20205;-96
2023/12/29 12:04:44;;;;;;;3.25;0.93;;;8.70;99.90;;;;;;5015246;28;20651;-96
2023/12/29 12:07:36;;;;;;;4.15;0.93;;;8.80;99.90;;;;;;5016040;28;20195;-95
2023/12/29 12:10:21;;;;;;;2.60;1.10;;;8.80;99.90;;;;;;5015429;28;20175;-96
2023/12/29 12:12:51;;;;;;;4.93;0.88;;;8.90;99.90;;;;;;5014633;28;20168;-95
2023/12/29 12:15:29;;;;;;;3.50;1.00;;;8.90;99.90;;;;;;5014000;28;20662;-95
2023/12/29 12:17:56;;;;;;;1.85;0.63;;;8.90;99.90;;;;;;5014595;28;20631;-95
2023/12/29 12:20:23;;;;;;;3.30;1.00;;;9.00;99.90;;;;;;5014962;28;20266;-95
2023/12/29 12:22:58;;;;;;;3.53;0.77;;;9.00;99.90;;;;;;5014772;28;20242;-95
2023/12/29 12:25:29;;;;;;;2.65;0.82;;;9.10;99.90;;;;;;5015055;28;20187;-95
2023/12/29 12:27:58;;;;;;;2.05;0.60;;;9.10;99.90;;;;;;5014004;28;20243;-95
2023/12/29 12:30:24;;;;;;;2.80;0.80;;;9.10;99.90;;;;;;5014410;28;20168;-94
2023/12/29 12:33:01;;;;;;;2.03;1.00;;;9.10;99.90;;;;;;5014432;28;20194;-95
2023/12/29 12:35:26;;;;;;;3.08;0.93;;;9.20;99.90;;;;;;5015164;28;20175;-94
2023/12/29 12:38:11;;;;;;;2.58;0.70;;;9.20;99.90;;;;;;5013002;28;20269;-94
2023/12/29 12:40:38;;;;;;;2.28;0.52;;;9.30;99.90;;;;;;5013818;28;20190;-96
2023/12/29 12:43:04;;;;;;;0.88;0.50;;;9.30;99.90;;;;;;5014385;28;20227;-94
2023/12/29 12:45:35;;;;;;;2.35;0.60;;;9.40;99.90;;;;;;5013746;28;20160;-95
2023/12/29 12:48:13;;;;;;;1.17;0.40;;;9.40;99.90;;;;;;5013544;28;20168;-93
2023/12/29 12:50:47;;;;;;;1.45;0.70;;;9.40;99.90;;;;;;5013516;28;20166;-95
2023/12/29 12:53:20;;;;;;;3.00;0.70;;;9.40;99.90;;;;;;5011508;28;20195;-95
2023/12/29 12:55:50;;;;;;;1.52;0.63;;;9.50;99.90;;;;;;4995397;28;20232;-94
2023/12/29 12:58:23;;;;;;;0.95;0.30;;;9.50;99.90;;;;;;4995261;28;20171;-96
2023/12/29 13:00:50;;;;;;;1.45;0.60;;;9.50;99.90;;;;;;4994719;28;20655;-95
2023/12/29 13:03:16;;;;;;;1.35;0.50;;;9.50;99.90;;;;;;4996935;28;20315;-96